Airfield :
LOGIN :

Register | Disclaimer

   EN    FR    IT 

 










Legend :    VFR   Marginal VFR   IFR   Intensive IFR   Very Intensive IFR
Visi :
Ceiling :
>= 8 km
>= 3000ft
5 to 8 km
1000 to 3000 ft
1500m to 5 km
500 to 1000 ft
800 to 1500m
200 to 500 ft
< 800m
< 200 ft
Symbols :   Thunderstorms  Fog  Heavy snow  Heavy precipitations  Wind > 20 kt
SIGMETs :     Misc.  Thunderstorms  Icing  Turbulence  Mountain Waves  Volcanic Ashes






- Airport Elevation : 313 ft


LFQA - Reims-Prunay

CURRENT METAR :
  • 282200Z AUTO 10007KT 2800 BR NSC 02/02 Q1020

EXPIRED METARs :
  • 282130Z AUTO 10006KT 3400 BR NSC 03/03 Q1021
  • 282100Z AUTO VRB02KT 3600 BR NSC 03/03 Q1021
  • 282030Z AUTO 07003KT 3000 BR NSC 02/02 Q1021
  • 282000Z AUTO 11003KT 3500 BR NSC 02/01 Q1021
  • 281930Z AUTO 07005KT 4800 BR NSC 03/03 Q1021
  • 281900Z AUTO 09004KT 5000 BR NSC 02/02 Q1021
  • 281830Z AUTO VRB01KT 7000 NSC 04/03 Q1022
  • 281800Z AUTO 00000KT 8000 NSC 05/03 Q1022
  • 281730Z AUTO 13004KT 8000 NSC 05/04 Q1022

TAF N/A



MET'MAP, your aeronautical weather chart ! - Copyright ORBIFLY December 2007 - Disclaimer

ORBIFLY MET'MAP TEAM :

Programming & Development : Alexandra Zaïnal
Original concept : Baudouin d'Aumeries
Technical & hardware support : Manuel Goepfert
Assistance : Marc-Olivier Méhu




SOURCES & CREDITS :

   NOAA